Time;durP1;ratioP1;P1;durP2;ratioP2;P2;SDS_P1;SDS_P2;PMS_P1;PMS_P2;Temp;Humidity;BMP_temperature;BMP_pressure;BME280_temperature;BME280_humidity;BME280_pressure;Samples;Min_cycle;Max_cycle;Signal;HPM_P1;HPM_P2
2023/04/18 00:01:21;;;;;;;3.28;1.98;;;6.10;99.90;;;;;;5051738;28;20120;-76
2023/04/18 00:03:48;;;;;;;4.22;2.00;;;6.20;99.90;;;;;;5032828;28;20124;-76
2023/04/18 00:06:13;;;;;;;3.05;1.90;;;6.10;99.90;;;;;;5033901;28;20120;-76
2023/04/18 00:08:39;;;;;;;3.47;2.10;;;6.20;99.90;;;;;;5037273;28;20522;-76
2023/04/18 00:11:05;;;;;;;2.92;1.95;;;6.20;99.90;;;;;;5037116;28;20117;-76
2023/04/18 00:13:31;;;;;;;3.70;2.00;;;6.20;99.90;;;;;;5036476;28;20052;-76
2023/04/18 00:15:57;;;;;;;3.33;1.80;;;6.20;99.90;;;;;;5043414;28;20120;-76
2023/04/18 00:18:25;;;;;;;3.58;2.00;;;6.20;99.90;;;;;;5051745;28;20517;-76
2023/04/18 00:20:52;;;;;;;3.00;2.00;;;6.20;99.90;;;;;;5043667;28;20406;-76
2023/04/18 00:23:20;;;;;;;3.50;2.00;;;6.20;99.90;;;;;;5042310;28;20048;-76
2023/04/18 00:25:46;;;;;;;3.28;2.15;;;6.10;99.90;;;;;;5045474;28;20088;-76
2023/04/18 00:28:12;;;;;;;3.38;2.08;;;6.10;99.90;;;;;;5045248;28;20090;-76
2023/04/18 00:30:38;;;;;;;3.75;1.80;;;6.10;99.90;;;;;;5040869;28;20041;-76
2023/04/18 00:33:04;;;;;;;2.72;1.85;;;6.10;99.90;;;;;;5043257;28;20048;-76
2023/04/18 00:35:30;;;;;;;2.83;1.70;;;6.10;99.90;;;;;;5046243;28;20068;-76
2023/04/18 00:37:56;;;;;;;3.00;1.88;;;6.10;99.90;;;;;;5032911;28;20029;-76
2023/04/18 00:40:22;;;;;;;3.42;2.13;;;6.10;99.90;;;;;;5041958;28;20079;-76
2023/04/18 00:42:48;;;;;;;3.15;2.00;;;6.10;99.90;;;;;;5031744;28;20033;-76
2023/04/18 00:45:13;;;;;;;3.22;1.85;;;6.20;99.90;;;;;;5032024;28;20042;-76
2023/04/18 00:47:39;;;;;;;2.92;1.85;;;6.10;99.90;;;;;;5040178;28;20048;-76
2023/04/18 00:50:05;;;;;;;3.15;2.15;;;6.10;99.90;;;;;;5038766;28;20038;-76
2023/04/18 00:52:34;;;;;;;3.70;2.40;;;6.00;99.90;;;;;;5047387;28;20441;-76
2023/04/18 00:55:02;;;;;;;3.33;2.10;;;6.00;99.90;;;;;;5033199;28;20491;-76
2023/04/18 00:57:28;;;;;;;3.00;2.08;;;6.00;99.90;;;;;;5053154;28;20078;-76
2023/04/18 00:59:54;;;;;;;2.75;1.80;;;6.00;99.90;;;;;;5050593;28;20116;-76
2023/04/18 01:02:20;;;;;;;2.72;1.88;;;6.00;99.90;;;;;;5041048;28;20037;-76
2023/04/18 01:04:46;;;;;;;3.30;2.20;;;6.00;99.90;;;;;;5032837;28;20118;-76
2023/04/18 01:07:13;;;;;;;3.15;1.90;;;5.90;99.90;;;;;;5033375;28;20038;-76
2023/04/18 01:09:39;;;;;;;4.97;2.10;;;5.90;99.90;;;;;;5037418;28;20372;-76
2023/04/18 01:12:05;;;;;;;3.72;2.15;;;6.00;99.90;;;;;;5037897;28;20033;-76
2023/04/18 01:14:31;;;;;;;4.60;2.13;;;6.00;99.90;;;;;;5043075;28;20037;-76
2023/04/18 01:16:57;;;;;;;3.90;2.30;;;6.00;99.90;;;;;;5039425;28;20069;-75
2023/04/18 01:19:23;;;;;;;3.60;1.95;;;6.00;99.90;;;;;;5057170;28;20037;-75
2023/04/18 01:21:49;;;;;;;3.83;2.20;;;6.00;99.90;;;;;;5048922;28;20059;-75
2023/04/18 01:24:16;;;;;;;3.50;2.35;;;6.00;99.90;;;;;;5052199;28;20087;-75
2023/04/18 01:26:46;;;;;;;4.07;2.17;;;6.00;99.90;;;;;;5060927;28;20073;-75
2023/04/18 01:29:12;;;;;;;3.33;2.20;;;6.00;99.90;;;;;;5058369;28;20035;-76
2023/04/18 01:31:39;;;;;;;3.63;2.30;;;6.00;99.90;;;;;;5051667;28;20045;-75
2023/04/18 01:34:06;;;;;;;3.53;2.45;;;6.00;99.90;;;;;;5054062;28;20029;-75
2023/04/18 01:36:32;;;;;;;3.88;2.30;;;6.00;99.90;;;;;;5039509;28;20056;-75
2023/04/18 01:38:59;;;;;;;4.07;2.58;;;6.00;99.90;;;;;;5037937;28;20045;-75
2023/04/18 01:41:26;;;;;;;4.45;2.78;;;6.00;99.90;;;;;;5050170;28;20033;-75
2023/04/18 01:43:51;;;;;;;3.60;2.60;;;6.00;99.90;;;;;;5038159;28;20115;-76
2023/04/18 01:46:17;;;;;;;4.45;2.65;;;6.00;99.90;;;;;;5037290;28;20033;-75
2023/04/18 01:48:43;;;;;;;4.38;2.85;;;6.00;99.90;;;;;;5037226;28;20429;-75
2023/04/18 01:51:08;;;;;;;4.55;2.70;;;5.90;99.90;;;;;;5045402;28;20048;-75
2023/04/18 01:53:34;;;;;;;5.03;3.00;;;5.80;99.90;;;;;;5054591;28;20424;-75
2023/04/18 01:56:00;;;;;;;4.28;2.80;;;5.80;99.90;;;;;;5041010;28;20553;-75
2023/04/18 01:58:26;;;;;;;3.65;2.50;;;5.70;99.90;;;;;;5057297;28;20398;-75
2023/04/18 02:00:53;;;;;;;4.43;2.80;;;5.70;99.90;;;;;;5050698;28;20033;-75
2023/04/18 02:03:19;;;;;;;6.15;3.83;;;5.70;99.90;;;;;;5039022;28;20033;-76
2023/04/18 02:05:45;;;;;;;13.38;7.05;;;5.70;99.90;;;;;;5041281;28;20061;-75
2023/04/18 02:08:12;;;;;;;11.00;6.20;;;5.70;99.90;;;;;;5046722;28;20121;-75
2023/04/18 02:10:38;;;;;;;8.60;5.22;;;5.70;99.90;;;;;;5040005;28;20557;-75
2023/04/18 02:13:05;;;;;;;6.85;4.70;;;5.70;99.90;;;;;;5041491;28;20060;-75
2023/04/18 02:15:31;;;;;;;6.25;4.03;;;5.70;99.90;;;;;;5038349;28;20112;-75
2023/04/18 02:17:58;;;;;;;5.38;3.75;;;5.60;99.90;;;;;;5049277;28;20049;-75
2023/04/18 02:20:25;;;;;;;5.43;3.35;;;5.60;99.90;;;;;;5053860;28;20447;-75
2023/04/18 02:22:51;;;;;;;6.20;4.38;;;5.70;99.90;;;;;;5055634;28;20091;-75
2023/04/18 02:25:17;;;;;;;4.95;3.40;;;5.70;99.90;;;;;;5056249;28;20060;-75
2023/04/18 02:27:43;;;;;;;4.80;3.40;;;5.70;99.90;;;;;;5041382;28;20045;-75
2023/04/18 02:30:09;;;;;;;6.32;3.65;;;5.70;99.90;;;;;;5025235;28;20128;-75
2023/04/18 02:32:35;;;;;;;4.97;3.97;;;5.70;99.90;;;;;;5047380;28;20073;-76
2023/04/18 02:35:01;;;;;;;5.53;4.45;;;5.70;99.90;;;;;;5042548;28;20034;-76
2023/04/18 02:37:26;;;;;;;5.97;4.43;;;5.60;99.90;;;;;;5049309;28;20049;-76
2023/04/18 02:39:52;;;;;;;6.30;4.78;;;5.60;99.90;;;;;;5055897;28;20051;-76
2023/04/18 02:42:18;;;;;;;8.10;4.50;;;5.60;99.90;;;;;;5051335;28;20072;-76
2023/04/18 02:44:44;;;;;;;4.70;3.42;;;5.60;99.90;;;;;;5039206;28;20041;-76
2023/04/18 02:47:10;;;;;;;5.35;3.65;;;5.60;99.90;;;;;;5039409;28;20029;-76
2023/04/18 02:49:35;;;;;;;4.75;3.22;;;5.60;99.90;;;;;;5049694;28;20395;-76
2023/04/18 02:52:01;;;;;;;5.97;3.38;;;5.60;99.90;;;;;;5036581;28;20124;-76
2023/04/18 02:54:27;;;;;;;5.15;3.60;;;5.60;99.90;;;;;;5046128;28;20037;-76
2023/04/18 02:56:53;;;;;;;4.22;2.78;;;5.60;99.90;;;;;;5043479;28;20033;-76
2023/04/18 02:59:19;;;;;;;3.78;2.58;;;5.60;99.90;;;;;;5045735;28;20029;-76
2023/04/18 03:01:45;;;;;;;4.13;2.70;;;5.60;99.90;;;;;;5051442;28;20041;-76
2023/04/18 03:04:11;;;;;;;3.67;2.35;;;5.70;99.90;;;;;;5041034;28;20090;-76
2023/04/18 03:06:37;;;;;;;3.22;2.17;;;5.70;99.90;;;;;;5047585;28;20041;-76
2023/04/18 03:09:03;;;;;;;3.97;2.60;;;5.70;99.90;;;;;;5039942;28;20069;-76
2023/04/18 03:11:29;;;;;;;4.53;2.63;;;5.70;99.90;;;;;;5038655;28;20112;-76
2023/04/18 03:13:55;;;;;;;3.35;2.50;;;5.70;99.90;;;;;;5049618;28;20116;-76
2023/04/18 03:16:21;;;;;;;3.85;2.30;;;5.70;99.90;;;;;;5044699;28;20488;-76
2023/04/18 03:18:47;;;;;;;3.10;1.92;;;5.70;99.90;;;;;;5034510;28;20030;-76
2023/04/18 03:21:13;;;;;;;3.45;2.30;;;5.80;99.90;;;;;;5038421;28;20475;-76
2023/04/18 03:23:39;;;;;;;3.92;2.60;;;5.80;99.90;;;;;;5047866;28;20048;-76
2023/04/18 03:26:06;;;;;;;3.45;2.22;;;5.70;99.90;;;;;;5050832;28;20045;-76
2023/04/18 03:28:32;;;;;;;4.25;2.60;;;5.80;99.90;;;;;;5052825;28;20060;-75
2023/04/18 03:30:58;;;;;;;4.38;2.20;;;5.80;99.90;;;;;;5051313;28;20040;-76
2023/04/18 03:33:24;;;;;;;6.03;2.72;;;5.80;99.90;;;;;;5050834;28;20115;-76
2023/04/18 03:35:50;;;;;;;3.95;2.75;;;5.80;99.90;;;;;;5054315;28;20116;-76
2023/04/18 03:38:15;;;;;;;5.00;2.90;;;5.70;99.90;;;;;;5040943;28;20052;-75
2023/04/18 03:40:43;;;;;;;5.90;3.67;;;5.70;99.90;;;;;;5050103;28;20048;-75
2023/04/18 03:43:09;;;;;;;4.40;3.05;;;5.70;99.90;;;;;;5051197;28;20033;-75
2023/04/18 03:45:35;;;;;;;7.35;4.65;;;5.70;99.90;;;;;;5040627;28;20052;-76
2023/04/18 03:48:01;;;;;;;7.57;4.97;;;5.70;99.90;;;;;;5038840;28;20041;-75
2023/04/18 03:50:27;;;;;;;9.73;5.80;;;5.60;99.90;;;;;;5037370;28;20115;-75
2023/04/18 03:52:53;;;;;;;10.20;6.43;;;5.60;99.90;;;;;;5046291;28;20033;-75
2023/04/18 03:55:19;;;;;;;13.63;6.78;;;5.70;99.90;;;;;;5045157;28;20043;-76
2023/04/18 03:57:46;;;;;;;11.98;6.75;;;5.70;99.90;;;;;;5043447;28;20128;-75
2023/04/18 04:00:12;;;;;;;12.35;7.07;;;5.70;99.90;;;;;;5043813;28;20033;-76
2023/04/18 04:02:38;;;;;;;11.07;7.00;;;5.70;99.90;;;;;;5038239;28;20048;-76
2023/04/18 04:05:04;;;;;;;9.15;6.10;;;5.70;99.90;;;;;;5033498;28;20034;-76
2023/04/18 04:07:31;;;;;;;6.60;4.38;;;5.70;99.90;;;;;;5043251;28;20048;-76
2023/04/18 04:09:57;;;;;;;5.75;3.28;;;5.70;99.90;;;;;;5037426;28;20045;-76
2023/04/18 04:12:24;;;;;;;5.25;3.40;;;5.70;99.90;;;;;;5041421;28;20041;-76
2023/04/18 04:14:50;;;;;;;4.43;2.92;;;5.70;99.90;;;;;;5052415;28;20033;-76
2023/04/18 04:17:16;;;;;;;5.57;2.92;;;5.70;99.90;;;;;;5046411;28;20021;-77
2023/04/18 04:19:42;;;;;;;17.30;8.70;;;5.70;99.90;;;;;;5041919;28;20097;-76
2023/04/18 04:22:08;;;;;;;45.58;23.48;;;5.70;99.90;;;;;;5037129;28;20396;-76
2023/04/18 04:24:34;;;;;;;27.38;15.82;;;5.60;99.90;;;;;;5036017;28;20557;-76
2023/04/18 04:27:02;;;;;;;26.13;15.13;;;5.60;99.90;;;;;;5045048;28;20057;-77
2023/04/18 04:29:28;;;;;;;21.48;12.35;;;5.60;99.90;;;;;;5049858;28;20026;-77
2023/04/18 04:31:54;;;;;;;18.77;10.45;;;5.50;99.90;;;;;;5047513;28;20068;-77
2023/04/18 04:34:20;;;;;;;17.20;9.52;;;5.50;99.90;;;;;;5047414;28;20116;-76
2023/04/18 04:36:46;;;;;;;13.95;7.90;;;5.50;99.90;;;;;;5026959;28;20030;-76
2023/04/18 04:39:16;;;;;;;11.05;6.65;;;5.50;99.90;;;;;;5045169;28;20124;-77
2023/04/18 04:41:42;;;;;;;8.55;5.45;;;5.50;99.90;;;;;;5045292;28;20056;-77
2023/04/18 04:44:08;;;;;;;8.40;5.07;;;5.60;99.90;;;;;;5039728;28;20045;-77
2023/04/18 04:46:38;;;;;;;6.60;3.92;;;5.60;99.90;;;;;;5039604;28;20045;-76
2023/04/18 04:49:04;;;;;;;4.90;3.33;;;5.60;99.90;;;;;;5044240;28;20495;-76
2023/04/18 04:51:30;;;;;;;5.28;3.40;;;5.70;99.90;;;;;;5030884;28;20041;-77
2023/04/18 04:53:56;;;;;;;7.60;4.32;;;5.70;99.90;;;;;;5036390;28;20064;-77
2023/04/18 04:56:22;;;;;;;39.15;19.70;;;5.70;99.90;;;;;;5047155;28;20037;-76
2023/04/18 04:58:48;;;;;;;12.18;6.32;;;5.70;99.90;;;;;;5038779;28;20626;-77
2023/04/18 05:01:15;;;;;;;8.77;5.53;;;5.70;99.90;;;;;;5050165;28;20048;-77
2023/04/18 05:03:41;;;;;;;11.68;7.25;;;5.80;99.90;;;;;;5047981;28;20044;-76
2023/04/18 05:06:07;;;;;;;8.15;5.78;;;5.80;99.90;;;;;;5050464;28;20048;-77
2023/04/18 05:08:33;;;;;;;8.68;5.30;;;5.80;99.90;;;;;;5049284;28;20064;-76
2023/04/18 05:11:00;;;;;;;8.75;5.38;;;5.80;99.90;;;;;;5057561;28;20033;-77
2023/04/18 05:13:26;;;;;;;8.95;5.00;;;5.70;99.90;;;;;;5063117;28;20473;-77
2023/04/18 05:15:52;;;;;;;6.40;4.47;;;5.70;99.90;;;;;;5051014;28;20105;-77
2023/04/18 05:18:17;;;;;;;7.50;4.72;;;5.70;99.90;;;;;;5061636;28;20041;-77
2023/04/18 05:20:43;;;;;;;7.57;4.88;;;5.70;99.90;;;;;;5057267;28;20037;-76
2023/04/18 05:23:09;;;;;;;8.48;5.43;;;5.70;99.90;;;;;;5026199;28;20041;-77
2023/04/18 05:25:35;;;;;;;7.72;5.15;;;5.70;99.90;;;;;;5026762;28;20034;-77
2023/04/18 05:28:03;;;;;;;9.82;6.00;;;5.80;99.90;;;;;;5043932;28;20033;-77
2023/04/18 05:30:29;;;;;;;8.23;5.55;;;5.80;99.90;;;;;;5025804;28;20045;-76
2023/04/18 05:32:55;;;;;;;8.32;4.70;;;5.90;99.90;;;;;;5056288;28;20032;-77
2023/04/18 05:35:20;;;;;;;6.90;4.65;;;5.90;99.90;;;;;;5063412;28;20044;-77
2023/04/18 05:37:46;;;;;;;12.75;6.50;;;5.90;99.90;;;;;;5061538;28;20059;-77
2023/04/18 05:40:12;;;;;;;8.75;6.03;;;6.00;99.90;;;;;;5042974;28;20139;-77
2023/04/18 05:42:38;;;;;;;9.57;5.35;;;6.00;99.90;;;;;;5054088;28;20033;-77
2023/04/18 05:45:04;;;;;;;7.15;5.40;;;6.00;99.90;;;;;;5044302;28;20115;-77
2023/04/18 05:47:32;;;;;;;6.70;4.78;;;6.00;99.90;;;;;;5057044;28;20073;-77
2023/04/18 05:49:57;;;;;;;6.53;4.47;;;5.90;99.90;;;;;;5026314;28;20041;-77
2023/04/18 05:52:24;;;;;;;8.88;5.10;;;5.90;99.90;;;;;;5042718;28;20120;-77
2023/04/18 05:54:51;;;;;;;7.85;4.75;;;5.90;99.90;;;;;;5041911;28;20068;-77
2023/04/18 05:57:16;;;;;;;6.82;4.60;;;6.00;99.90;;;;;;5043699;28;20059;-77
2023/04/18 05:59:42;;;;;;;9.60;6.68;;;6.00;99.90;;;;;;5053235;28;20093;-77
2023/04/18 06:02:12;;;;;;;9.05;5.90;;;6.00;99.90;;;;;;5051110;28;20030;-77
2023/04/18 06:04:39;;;;;;;7.63;5.57;;;6.00;99.90;;;;;;5044312;28;20044;-77
2023/04/18 06:07:05;;;;;;;7.90;5.38;;;6.10;99.90;;;;;;5052220;28;20033;-76
2023/04/18 06:09:31;;;;;;;8.27;5.15;;;6.10;99.90;;;;;;5058727;28;20039;-77
2023/04/18 06:11:57;;;;;;;7.75;5.18;;;6.20;99.90;;;;;;5050536;28;20038;-77
2023/04/18 06:14:22;;;;;;;8.65;5.53;;;6.20;99.90;;;;;;5043953;28;20044;-77
2023/04/18 06:16:49;;;;;;;7.30;5.05;;;6.20;99.90;;;;;;5030520;28;20061;-76
2023/04/18 06:19:14;;;;;;;8.85;5.45;;;6.30;99.90;;;;;;5033134;28;20034;-76
2023/04/18 06:21:41;;;;;;;7.30;4.80;;;6.30;99.90;;;;;;5041833;28;20037;-77
2023/04/18 06:24:07;;;;;;;6.72;4.63;;;6.30;99.90;;;;;;5058306;28;20045;-77
2023/04/18 06:26:33;;;;;;;6.55;4.55;;;6.40;99.90;;;;;;5041764;28;20041;-77
2023/04/18 06:28:59;;;;;;;8.50;4.95;;;6.40;99.90;;;;;;5041764;28;20040;-77
2023/04/18 06:31:25;;;;;;;8.43;4.50;;;6.40;99.90;;;;;;5035474;28;20491;-77
2023/04/18 06:33:50;;;;;;;7.53;4.50;;;6.40;99.90;;;;;;5043583;28;20045;-77
2023/04/18 06:36:16;;;;;;;7.43;4.40;;;6.40;99.90;;;;;;5051193;28;20030;-77
2023/04/18 06:38:42;;;;;;;8.95;4.63;;;6.40;99.90;;;;;;5046620;28;20052;-77
2023/04/18 06:41:07;;;;;;;6.93;4.65;;;6.50;99.90;;;;;;5042801;28;20025;-76
2023/04/18 06:43:34;;;;;;;6.35;4.47;;;6.50;99.90;;;;;;5041528;28;20087;-77
2023/04/18 06:46:03;;;;;;;6.55;4.63;;;6.60;99.90;;;;;;5041816;28;20435;-77
2023/04/18 06:48:29;;;;;;;7.60;5.00;;;6.60;99.90;;;;;;5041184;28;20026;-77
2023/04/18 06:50:55;;;;;;;6.78;4.60;;;6.70;99.90;;;;;;5040771;28;20040;-77
2023/04/18 06:53:21;;;;;;;7.15;5.00;;;6.70;99.90;;;;;;5042794;28;20377;-77
2023/04/18 06:55:47;;;;;;;7.47;5.15;;;6.80;99.90;;;;;;5025427;28;20041;-77
2023/04/18 06:58:14;;;;;;;10.23;4.75;;;6.90;99.90;;;;;;5042878;28;20053;-77
2023/04/18 07:00:41;;;;;;;7.03;5.05;;;6.90;99.90;;;;;;5043146;28;20029;-77
2023/04/18 07:03:11;;;;;;;6.32;4.63;;;7.00;99.90;;;;;;5048734;28;20038;-77
2023/04/18 07:05:38;;;;;;;6.03;4.70;;;7.00;99.90;;;;;;5053385;28;20491;-77
2023/04/18 07:08:03;;;;;;;7.10;4.95;;;7.00;99.90;;;;;;5029629;28;20042;-77
2023/04/18 07:10:29;;;;;;;6.63;4.50;;;7.00;99.90;;;;;;5008720;28;20056;-77
2023/04/18 07:12:55;;;;;;;7.60;4.88;;;7.00;99.90;;;;;;5042495;28;20039;-77
2023/04/18 07:15:21;;;;;;;7.07;5.25;;;7.00;99.90;;;;;;5040526;28;20045;-77
2023/04/18 07:17:48;;;;;;;9.00;5.57;;;7.10;99.90;;;;;;5025761;28;20369;-77
2023/04/18 07:20:14;;;;;;;11.52;6.03;;;7.10;99.90;;;;;;5042239;28;20065;-77
2023/04/18 07:22:40;;;;;;;8.98;5.03;;;7.20;99.90;;;;;;5041053;28;20041;-77
2023/04/18 07:25:06;;;;;;;6.63;4.47;;;7.20;99.90;;;;;;5038717;28;20038;-77
2023/04/18 07:27:34;;;;;;;7.30;4.43;;;7.30;99.90;;;;;;5037864;28;20499;-77
2023/04/18 07:30:00;;;;;;;6.85;5.00;;;7.40;99.90;;;;;;5040683;28;20048;-77
2023/04/18 07:32:26;;;;;;;8.63;4.70;;;7.40;99.90;;;;;;5017194;28;20029;-77
2023/04/18 07:34:52;;;;;;;6.93;4.78;;;7.50;99.90;;;;;;5043058;28;20037;-77
2023/04/18 07:37:20;;;;;;;7.72;4.75;;;7.50;99.90;;;;;;5059527;28;20519;-77
2023/04/18 07:39:46;;;;;;;8.20;5.03;;;7.60;99.90;;;;;;5060104;28;20494;-77
2023/04/18 07:42:12;;;;;;;8.70;5.00;;;7.60;99.90;;;;;;5061850;28;20103;-77
2023/04/18 07:44:38;;;;;;;7.72;5.00;;;7.60;99.90;;;;;;5044022;28;20033;-77
2023/04/18 07:47:08;;;;;;;6.80;4.63;;;7.70;99.90;;;;;;5060387;28;20441;-77
2023/04/18 07:49:34;;;;;;;7.85;4.45;;;7.70;99.90;;;;;;5061669;28;20028;-77
2023/04/18 07:52:00;;;;;;;6.53;4.40;;;7.70;99.90;;;;;;5061271;28;20037;-77
2023/04/18 07:54:26;;;;;;;10.27;4.78;;;7.80;99.90;;;;;;5060855;28;20033;-77
2023/04/18 07:56:52;;;;;;;6.05;4.35;;;7.80;99.90;;;;;;5043456;28;20040;-77
2023/04/18 07:59:17;;;;;;;7.43;5.15;;;7.80;99.90;;;;;;5060303;28;20029;-77
2023/04/18 08:01:43;;;;;;;12.18;8.23;;;7.90;99.90;;;;;;5061384;28;20033;-77
2023/04/18 08:04:09;;;;;;;12.23;7.32;;;8.00;99.90;;;;;;5059431;28;20041;-77
2023/04/18 08:06:34;;;;;;;10.60;6.30;;;8.10;99.90;;;;;;5060185;28;20060;-77
2023/04/18 08:09:04;;;;;;;8.77;6.03;;;8.10;99.90;;;;;;5060079;28;20044;-77
2023/04/18 08:11:33;;;;;;;9.32;6.05;;;8.20;99.90;;;;;;5044323;28;20052;-77
2023/04/18 08:13:59;;;;;;;6.95;4.75;;;8.20;99.90;;;;;;5043282;28;20037;-77
2023/04/18 08:16:25;;;;;;;6.88;4.75;;;8.30;99.90;;;;;;5060589;28;20021;-77
2023/04/18 08:18:51;;;;;;;7.65;5.22;;;8.40;99.90;;;;;;5060362;28;20040;-77
2023/04/18 08:21:20;;;;;;;7.72;5.20;;;8.40;99.90;;;;;;5042363;28;20041;-77
2023/04/18 08:23:46;;;;;;;8.88;5.20;;;8.50;99.90;;;;;;5043521;28;20037;-77
2023/04/18 08:26:11;;;;;;;7.93;4.82;;;8.60;99.90;;;;;;5059046;28;20036;-77
2023/04/18 08:28:37;;;;;;;7.72;5.65;;;8.60;99.90;;;;;;5060766;28;20060;-77
2023/04/18 08:31:03;;;;;;;7.00;5.40;;;8.70;99.90;;;;;;5061450;28;20033;-77
2023/04/18 08:33:28;;;;;;;9.60;5.85;;;8.90;99.90;;;;;;5040090;28;20034;-77
2023/04/18 08:35:54;;;;;;;8.18;5.90;;;9.10;99.90;;;;;;5041077;28;20036;-77
2023/04/18 08:38:20;;;;;;;8.95;5.97;;;9.40;99.90;;;;;;5023836;28;20038;-77
2023/04/18 08:40:46;;;;;;;6.07;4.40;;;9.70;99.90;;;;;;5023459;28;20042;-77
2023/04/18 08:43:13;;;;;;;7.10;4.80;;;9.90;99.90;;;;;;5039929;28;20037;-77
2023/04/18 08:45:43;;;;;;;6.53;4.63;;;10.20;99.90;;;;;;5043668;28;20038;-77
2023/04/18 08:48:16;;;;;;;7.10;4.43;;;10.30;99.90;;;;;;5043381;28;20040;-77
2023/04/18 08:50:43;;;;;;;7.60;4.72;;;10.40;99.90;;;;;;5052782;28;20052;-77
2023/04/18 08:53:09;;;;;;;7.07;4.68;;;10.40;99.90;;;;;;5044612;28;20372;-77
2023/04/18 08:55:35;;;;;;;6.93;4.25;;;10.50;99.90;;;;;;5040950;28;20037;-77
2023/04/18 08:58:03;;;;;;;6.47;3.80;;;10.40;99.90;;;;;;5023855;28;20111;-77
2023/04/18 09:00:29;;;;;;;6.07;4.40;;;10.50;99.90;;;;;;5041050;28;20116;-77
2023/04/18 09:02:56;;;;;;;5.78;4.40;;;10.50;99.90;;;;;;5051007;28;20080;-77
2023/04/18 09:05:24;;;;;;;5.55;4.05;;;10.50;99.90;;;;;;5040722;28;20088;-77
2023/04/18 09:07:52;;;;;;;6.68;4.00;;;10.50;99.90;;;;;;5040134;28;20046;-77
2023/04/18 09:10:32;;;;;;;5.28;3.67;;;10.60;99.90;;;;;;5048656;28;20025;-77
2023/04/18 09:13:01;;;;;;;6.13;3.40;;;10.70;99.90;;;;;;5044118;28;20112;-77
2023/04/18 09:15:28;;;;;;;8.00;4.60;;;10.80;99.90;;;;;;5042094;28;20108;-77
2023/04/18 09:17:56;;;;;;;5.95;4.00;;;11.00;99.90;;;;;;5041346;28;20108;-77
2023/04/18 09:20:42;;;;;;;6.38;3.50;;;11.10;99.90;;;;;;5040808;28;20085;-77
2023/04/18 09:23:20;;;;;;;7.82;4.95;;;11.10;99.90;;;;;;5040008;28;20034;-77
2023/04/18 09:25:48;;;;;;;5.75;4.35;;;11.20;99.90;;;;;;5041954;28;20034;-77
2023/04/18 09:28:30;;;;;;;6.85;5.60;;;11.30;99.90;;;;;;5041214;28;20034;-77
2023/04/18 09:31:03;;;;;;;6.05;3.88;;;11.40;99.90;;;;;;5039429;28;20037;-78
2023/04/18 09:33:33;;;;;;;4.70;3.40;;;11.40;99.90;;;;;;5040027;28;20030;-77
2023/04/18 09:36:22;;;;;;;5.15;3.33;;;11.50;99.90;;;;;;5023642;28;20040;-77
2023/04/18 09:38:50;;;;;;;5.90;3.50;;;11.60;99.90;;;;;;5044846;28;20071;-77
2023/04/18 09:41:16;;;;;;;5.47;3.22;;;11.70;99.90;;;;;;5044620;28;20061;-77
2023/04/18 09:43:46;;;;;;;4.50;3.10;;;11.90;99.90;;;;;;5044749;28;20043;-77
2023/04/18 09:46:12;;;;;;;4.18;2.67;;;11.90;99.90;;;;;;5051564;28;20124;-77
2023/04/18 09:48:39;;;;;;;4.38;2.85;;;11.80;99.90;;;;;;5046711;28;20037;-77
2023/04/18 09:51:15;;;;;;;4.80;3.00;;;12.00;99.90;;;;;;5064919;28;20029;-78
2023/04/18 09:53:49;;;;;;;3.80;2.63;;;12.10;99.90;;;;;;5064063;28;20023;-78
2023/04/18 09:56:24;;;;;;;3.67;2.47;;;12.00;99.90;;;;;;5064116;28;20033;-77
2023/04/18 09:58:55;;;;;;;4.63;2.95;;;11.90;99.90;;;;;;5064244;28;20093;-78
2023/04/18 10:01:26;;;;;;;5.80;3.33;;;11.80;99.90;;;;;;5063675;28;20396;-77
2023/04/18 10:03:54;;;;;;;4.70;3.15;;;11.70;99.90;;;;;;5042382;28;20037;-77
2023/04/18 10:06:20;;;;;;;3.95;2.83;;;11.70;99.90;;;;;;5044283;28;20529;-77
2023/04/18 10:08:47;;;;;;;4.97;3.30;;;11.80;99.90;;;;;;5026388;28;20042;-78
2023/04/18 10:11:14;;;;;;;5.88;3.13;;;11.70;99.90;;;;;;5043691;28;20022;-78
2023/04/18 10:13:43;;;;;;;4.57;3.08;;;11.70;99.90;;;;;;5044497;28;20403;-78
2023/04/18 10:16:10;;;;;;;5.70;3.58;;;11.70;99.90;;;;;;5046575;28;20033;-77
2023/04/18 10:18:36;;;;;;;4.70;3.08;;;11.70;99.90;;;;;;5026104;28;20045;-78
2023/04/18 10:21:03;;;;;;;5.28;3.30;;;11.70;99.90;;;;;;5043484;28;20026;-78
2023/04/18 10:23:33;;;;;;;7.50;3.53;;;11.80;99.90;;;;;;5044055;28;20021;-77
2023/04/18 10:25:59;;;;;;;4.77;3.17;;;11.90;99.90;;;;;;5042960;28;20525;-77
2023/04/18 10:28:26;;;;;;;4.10;2.70;;;11.90;99.90;;;;;;5059629;28;20390;-77
2023/04/18 10:30:53;;;;;;;5.50;3.25;;;11.90;99.90;;;;;;5042095;28;20392;-77
2023/04/18 10:33:39;;;;;;;4.97;3.35;;;11.90;99.90;;;;;;5057110;28;20033;-78
2023/04/18 10:36:15;;;;;;;4.97;3.42;;;12.00;99.90;;;;;;5058948;28;20055;-77
2023/04/18 10:38:51;;;;;;;4.95;3.25;;;12.10;99.90;;;;;;5059806;28;20072;-78
2023/04/18 10:41:25;;;;;;;4.45;2.88;;;12.00;99.90;;;;;;5059047;28;20049;-77
2023/04/18 10:44:10;;;;;;;4.55;2.90;;;12.00;99.90;;;;;;5056302;28;20057;-77
2023/04/18 10:47:07;;;;;;;4.72;2.90;;;12.10;99.90;;;;;;5046780;28;20025;-77
2023/04/18 10:49:35;;;;;;;4.75;3.00;;;12.30;99.90;;;;;;5017840;28;20061;-77
2023/04/18 10:52:04;;;;;;;5.63;3.33;;;12.40;99.90;;;;;;5038374;28;20034;-77
2023/04/18 10:55:02;;;;;;;5.75;3.53;;;12.50;99.90;;;;;;5040017;28;20053;-77
2023/04/18 10:57:39;;;;;;;5.78;3.03;;;12.60;99.90;;;;;;5038902;28;20025;-77
2023/04/18 11:00:13;;;;;;;3.92;2.60;;;13.00;99.90;;;;;;5040275;28;20032;-77
2023/04/18 11:02:46;;;;;;;4.82;3.40;;;13.30;99.90;;;;;;5038730;28;20041;-77
2023/04/18 11:05:18;;;;;;;5.45;2.70;;;13.50;99.90;;;;;;5040298;28;20029;-77
2023/04/18 11:07:47;;;;;;;4.57;3.00;;;13.70;99.90;;;;;;5039444;28;20041;-78
2023/04/18 11:10:20;;;;;;;3.38;2.40;;;13.70;99.90;;;;;;5037747;28;20762;-77
2023/04/18 11:12:46;;;;;;;4.70;3.17;;;13.80;99.90;;;;;;5041622;28;20030;-77
2023/04/18 11:15:20;;;;;;;5.40;3.08;;;13.80;99.90;;;;;;5040233;28;20041;-77
2023/04/18 11:17:58;;;;;;;5.22;3.40;;;13.70;99.90;;;;;;5038793;28;20029;-77
2023/04/18 11:20:24;;;;;;;5.13;2.88;;;13.70;99.90;;;;;;5039518;28;20033;-77
2023/04/18 11:22:52;;;;;;;5.28;2.60;;;13.70;99.90;;;;;;5039135;28;20144;-77
2023/04/18 11:25:22;;;;;;;5.70;2.88;;;13.70;99.90;;;;;;5039317;28;20026;-77
2023/04/18 11:27:53;;;;;;;3.78;2.22;;;13.50;99.90;;;;;;5041153;28;20471;-77
2023/04/18 11:30:19;;;;;;;;;;;13.50;99.90;;;;;;5042771;28;20033;-78
2023/04/18 11:32:45;;;;;;;3.22;2.10;;;13.40;99.90;;;;;;5036740;28;20389;-78
2023/04/18 11:35:12;;;;;;;4.63;2.97;;;13.20;99.90;;;;;;5035079;28;20594;-78
2023/04/18 11:37:39;;;;;;;4.35;2.47;;;13.10;99.90;;;;;;5036539;28;20032;-78
2023/04/18 11:40:07;;;;;;;5.55;2.85;;;13.20;99.90;;;;;;5035897;28;20041;-78
2023/04/18 11:42:34;;;;;;;3.58;2.60;;;13.40;99.90;;;;;;5035576;28;20030;-78
2023/04/18 11:45:00;;;;;;;4.07;2.45;;;13.40;99.90;;;;;;5036420;28;20028;-78
2023/04/18 11:47:27;;;;;;;4.28;2.78;;;13.40;99.90;;;;;;5036026;28;20490;-77
2023/04/18 11:50:03;;;;;;;3.38;2.22;;;13.50;99.90;;;;;;5034626;28;20034;-77
2023/04/18 11:52:30;;;;;;;4.03;2.50;;;13.50;99.90;;;;;;5038194;28;20021;-78
2023/04/18 11:55:13;;;;;;;3.95;2.30;;;13.50;99.90;;;;;;5037103;28;20109;-77
2023/04/18 11:57:39;;;;;;;5.10;2.20;;;13.40;99.90;;;;;;5036139;28;20048;-78
2023/04/18 12:00:07;;;;;;;3.88;2.25;;;13.40;99.90;;;;;;5037357;28;20033;-77
2023/04/18 12:02:44;;;;;;;3.42;2.22;;;13.50;99.90;;;;;;5037771;28;20029;-77
2023/04/18 12:05:13;;;;;;;4.20;2.40;;;13.50;99.90;;;;;;5033432;28;20026;-77
2023/04/18 12:07:41;;;;;;;3.47;2.40;;;13.60;99.90;;;;;;5033950;28;20033;-77
2023/04/18 12:10:19;;;;;;;4.22;2.63;;;13.80;99.90;;;;;;5033490;28;20060;-77
2023/04/18 12:12:49;;;;;;;3.47;2.38;;;14.10;99.90;;;;;;5033848;28;20026;-77
2023/04/18 12:15:16;;;;;;;3.92;2.50;;;14.10;99.90;;;;;;5035110;28;20030;-77
2023/04/18 12:17:50;;;;;;;4.10;2.50;;;14.20;99.90;;;;;;5053252;28;20029;-77
2023/04/18 12:20:17;;;;;;;4.38;2.60;;;14.40;99.90;;;;;;5053559;28;20060;-78
2023/04/18 12:22:48;;;;;;;3.25;2.25;;;14.40;99.90;;;;;;5054060;28;20079;-77
2023/04/18 12:25:18;;;;;;;;;;;14.50;99.90;;;;;;5053803;28;20044;-77
2023/04/18 12:28:14;;;;;;;5.07;2.70;;;14.50;99.90;;;;;;5053571;28;20013;-77
2023/04/18 12:30:40;;;;;;;4.05;2.25;;;14.60;99.90;;;;;;5053277;28;20058;-77
2023/04/18 12:33:08;;;;;;;5.43;2.65;;;14.60;99.90;;;;;;5037500;28;20121;-77
2023/04/18 12:35:33;;;;;;;3.92;2.40;;;14.60;99.90;;;;;;5031972;28;20107;-77
2023/04/18 12:38:01;;;;;;;4.88;3.05;;;14.70;99.90;;;;;;5033371;28;20045;-77
2023/04/18 12:40:28;;;;;;;4.97;2.63;;;14.70;99.90;;;;;;5033351;28;20517;-77
2023/04/18 12:42:55;;;;;;;3.92;2.70;;;14.60;99.90;;;;;;5033349;28;20045;-77
2023/04/18 12:45:22;;;;;;;4.50;2.83;;;14.50;99.90;;;;;;5033777;28;20495;-77
2023/04/18 12:47:49;;;;;;;4.20;3.00;;;14.50;99.90;;;;;;5053021;28;20033;-76
2023/04/18 12:50:18;;;;;;;5.50;3.60;;;14.50;99.90;;;;;;5052618;28;20052;-77
2023/04/18 12:52:44;;;;;;;3.63;2.40;;;14.20;99.90;;;;;;5035563;28;20022;-78
2023/04/18 12:55:11;;;;;;;3.70;2.63;;;14.00;99.90;;;;;;5036968;28;20064;-76